ميلانو, Italy

09:41 PM CEST on êèنêè 29, 2016 (GMT +0200)
Malpensa | | Change Station

Elev 728 ft 45.61 °N, 8.75 °E | Updated 11 minutes ago

Clear
صافية
76.5 °F
Feels Like 78 °F
N
0.0
ريح متغير ريح from شمال
Gusts 0.0 mph

هذا اليوم
High -- | Low -- °F
--% Chance of Precip.
Yesterday
High -- | Low -- °F
Precip. -- في
الضغط 29.95 في
وضوح الرؤية -9999.0 أميال
سحابات
مؤشر الحرارة 78 °F
نقطة الندى 64 °F
الرطوبة 65%
Rainfall 0.00 في
عمق الثلج Not available.
6:05 AM 8:56 PM
الهلال الأخير, 19% visible
METAR LIMC 291920Z VRB01KT CAVOK 26/18 Q1014 NOSIG
الضغط 29.95 في
وضوح الرؤية -9999.0 أميال
سحابات
مؤشر الحرارة 78 °F
نقطة الندى 64 °F
الرطوبة 65%
Rainfall 0.00 في
عمق الثلج Not available.
6:05 AM 8:56 PM
الهلال الأخير, 19% visible
METAR LIMC 291920Z VRB01KT CAVOK 26/18 Q1014 NOSIG

10-Day Weather Forecast

×

Almanac

علم الفلك

Jul. 29, 2016 Rise Set
Actual Time
Civil Twilight
Nautical Twilight
Astronomical Twilight
قمر
Length Of Visible Light
طول الیوم
Tomorrow will be .
, % of the Moon is Illuminated

Today's Extremes

Country Highs Country Lows

Community

WunderPhotos

Upload Photos

1,928,401 photos uploaded!

WunderBlog® & News

Nearby

جودة الهواء

  جودة الهواء AQ Index Pollutant
Not available.

عمق الثلج

Station Depth Elevation

Earthquake Activity

City Distance Mag. Time & Date
Minimum magnitude displayed is 2.5.

Coastal Water Temperatures

مكان درجات الحرارة

Stations

Nearby Weather Stations

Station Location الحرارة رياح باردة نقطة الندى الرطوبة ريح Precip. Elev تحديث Type